Time;durP1;ratioP1;P1;durP2;ratioP2;P2;SDS_P1;SDS_P2;PMS_P1;PMS_P2;Temp;Humidity;BMP_temperature;BMP_pressure;BME280_temperature;BME280_humidity;BME280_pressure;Samples;Min_cycle;Max_cycle;Signal;HPM_P1;HPM_P2
2023/04/26 00:00:20;;;;;;;20.00;4.32;;;4.60;99.90;;;;;;5064104;28;20040;-70
2023/04/26 00:02:46;;;;;;;14.35;3.67;;;4.60;99.90;;;;;;5064589;28;20071;-70
2023/04/26 00:05:13;;;;;;;16.05;3.60;;;4.60;99.90;;;;;;5065238;28;20086;-70
2023/04/26 00:07:38;;;;;;;16.25;3.55;;;4.60;99.90;;;;;;5064875;28;20029;-72
2023/04/26 00:10:05;;;;;;;15.93;3.67;;;4.50;99.90;;;;;;5065275;28;20040;-69
2023/04/26 00:12:31;;;;;;;10.38;3.22;;;4.50;99.90;;;;;;5064720;28;20028;-70
2023/04/26 00:14:56;;;;;;;11.57;3.17;;;4.50;99.90;;;;;;5065162;28;20024;-70
2023/04/26 00:17:23;;;;;;;7.85;2.95;;;4.50;99.90;;;;;;5065051;28;20028;-69
2023/04/26 00:19:49;;;;;;;13.70;3.30;;;4.40;99.90;;;;;;5064460;28;20135;-70
2023/04/26 00:22:15;;;;;;;9.98;2.95;;;4.40;99.90;;;;;;5064972;28;20021;-70
2023/04/26 00:24:41;;;;;;;11.75;3.40;;;4.50;99.90;;;;;;5064893;28;20032;-70
2023/04/26 00:27:09;;;;;;;9.82;2.88;;;4.40;99.90;;;;;;5064935;28;20064;-72
2023/04/26 00:29:35;;;;;;;13.07;2.63;;;4.40;99.90;;;;;;5065052;28;20077;-70
2023/04/26 00:32:00;;;;;;;10.02;2.78;;;4.50;99.90;;;;;;5064194;28;20486;-71
2023/04/26 00:34:32;;;;;;;12.98;3.22;;;4.50;99.90;;;;;;5064550;28;20025;-71
2023/04/26 00:36:57;;;;;;;15.23;3.53;;;4.50;99.90;;;;;;5064587;28;20692;-71
2023/04/26 00:39:23;;;;;;;19.30;3.50;;;4.50;99.90;;;;;;5064402;28;20029;-72
2023/04/26 00:41:49;;;;;;;10.70;3.10;;;4.50;99.90;;;;;;5064465;28;20025;-70
2023/04/26 00:44:14;;;;;;;10.35;2.67;;;4.50;99.90;;;;;;5063200;28;20710;-71
2023/04/26 00:46:40;;;;;;;13.48;3.53;;;4.50;99.90;;;;;;5063291;28;20045;-72
2023/04/26 00:49:06;;;;;;;11.25;3.40;;;4.50;99.90;;;;;;5063424;28;20028;-73
2023/04/26 00:51:31;;;;;;;16.50;3.90;;;4.50;99.90;;;;;;5061843;28;20033;-70
2023/04/26 00:53:58;;;;;;;15.48;3.80;;;4.50;99.90;;;;;;5061256;28;20032;-69
2023/04/26 00:56:24;;;;;;;14.45;3.53;;;4.40;99.90;;;;;;5062710;28;20013;-70
2023/04/26 00:58:49;;;;;;;20.50;4.35;;;4.40;99.90;;;;;;5061545;28;20135;-68
2023/04/26 01:01:15;;;;;;;16.35;4.40;;;4.40;99.90;;;;;;5062625;28;20029;-72
2023/04/26 01:03:41;;;;;;;15.23;4.47;;;4.40;99.90;;;;;;5061258;28;20059;-71
2023/04/26 01:06:07;;;;;;;15.10;5.07;;;4.30;99.90;;;;;;5061785;28;20021;-73
2023/04/26 01:08:33;;;;;;;22.33;4.57;;;4.30;99.90;;;;;;5063216;28;20126;-68
2023/04/26 01:10:59;;;;;;;19.05;4.93;;;4.30;99.90;;;;;;5060807;28;20489;-71
2023/04/26 01:13:25;;;;;;;18.73;5.20;;;4.30;99.90;;;;;;5061436;28;20024;-73
2023/04/26 01:15:52;;;;;;;23.95;5.13;;;4.40;99.90;;;;;;5062645;28;20592;-70
2023/04/26 01:18:17;;;;;;;17.45;5.18;;;4.30;99.90;;;;;;5061131;28;20071;-69
2023/04/26 01:20:45;;;;;;;17.98;5.32;;;4.30;99.90;;;;;;5062620;28;20017;-69
2023/04/26 01:23:11;;;;;;;20.33;5.68;;;4.20;99.90;;;;;;5062208;28;20021;-71
2023/04/26 01:25:37;;;;;;;19.55;5.00;;;4.20;99.90;;;;;;5062670;28;20042;-73
2023/04/26 01:28:02;;;;;;;15.77;5.30;;;4.20;99.90;;;;;;5061295;28;20478;-72
2023/04/26 01:30:28;;;;;;;13.88;5.20;;;4.20;99.90;;;;;;5059073;28;20052;-72
2023/04/26 01:32:54;;;;;;;18.73;5.05;;;4.20;99.90;;;;;;5061628;28;20466;-73
2023/04/26 01:35:19;;;;;;;15.57;3.92;;;4.20;99.90;;;;;;5060191;28;20025;-69
2023/04/26 01:37:45;;;;;;;19.85;5.18;;;4.30;99.90;;;;;;5061495;28;20059;-73
2023/04/26 01:40:11;;;;;;;22.13;5.50;;;4.20;99.90;;;;;;5058934;28;20029;-75
2023/04/26 01:42:36;;;;;;;21.00;5.60;;;4.20;99.90;;;;;;5059748;28;20063;-72
2023/04/26 01:45:02;;;;;;;16.77;5.40;;;4.40;99.90;;;;;;5022019;28;1092418;-71
2023/04/26 01:47:28;;;;;;;20.33;5.70;;;4.30;99.90;;;;;;5062468;28;20044;-74
2023/04/26 01:49:53;;;;;;;14.50;5.15;;;4.30;99.90;;;;;;5060974;28;20025;-71
2023/04/26 01:52:21;;;;;;;17.50;5.32;;;4.30;99.90;;;;;;5061226;28;20025;-68
2023/04/26 01:54:47;;;;;;;21.58;5.55;;;4.30;99.90;;;;;;5060261;28;20486;-72
2023/04/26 01:57:12;;;;;;;15.00;5.60;;;4.20;99.90;;;;;;5062285;28;20035;-69
2023/04/26 01:59:38;;;;;;;14.27;4.72;;;4.20;99.90;;;;;;5062436;28;20056;-69
2023/04/26 02:02:04;;;;;;;20.17;4.65;;;4.10;99.90;;;;;;5061327;28;20575;-68
2023/04/26 02:04:29;;;;;;;18.88;5.43;;;4.10;99.90;;;;;;5061545;28;20504;-72
2023/04/26 02:06:56;;;;;;;13.23;4.78;;;4.00;99.90;;;;;;5060851;28;20020;-72
2023/04/26 02:09:21;;;;;;;15.95;5.05;;;4.00;99.90;;;;;;5061860;28;20067;-68
2023/04/26 02:11:47;;;;;;;14.45;4.65;;;4.10;99.90;;;;;;5061909;28;20017;-70
2023/04/26 02:14:12;;;;;;;13.77;5.30;;;3.90;99.90;;;;;;5061630;28;20486;-70
2023/04/26 02:16:39;;;;;;;16.10;5.20;;;3.90;99.90;;;;;;5059753;28;20033;-73
2023/04/26 02:19:09;;;;;;;16.58;4.78;;;3.90;99.90;;;;;;5059309;28;20025;-72
2023/04/26 02:21:58;;;;;;;16.10;4.88;;;3.90;99.90;;;;;;5060504;28;20075;-70
2023/04/26 02:24:24;;;;;;;11.73;4.70;;;3.90;99.90;;;;;;5061107;28;20041;-71
2023/04/26 02:26:53;;;;;;;18.60;4.78;;;3.90;99.90;;;;;;5061612;28;20028;-74
2023/04/26 02:29:19;;;;;;;20.10;5.00;;;3.90;99.90;;;;;;5060354;28;20029;-72
2023/04/26 02:31:44;;;;;;;13.40;4.88;;;4.00;99.90;;;;;;5060038;28;20047;-73
2023/04/26 02:34:11;;;;;;;14.85;5.07;;;4.00;99.90;;;;;;5061918;28;20069;-72
2023/04/26 02:36:36;;;;;;;14.32;5.55;;;3.90;99.90;;;;;;5061730;28;20063;-73
2023/04/26 02:39:02;;;;;;;13.77;4.85;;;3.90;99.90;;;;;;5061217;28;20032;-72
2023/04/26 02:41:31;;;;;;;18.08;5.25;;;3.90;99.90;;;;;;5060241;28;20025;-73
2023/04/26 02:43:57;;;;;;;23.63;5.43;;;3.90;99.90;;;;;;5060755;28;20173;-73
2023/04/26 02:46:22;;;;;;;15.57;5.05;;;3.90;99.90;;;;;;5059621;28;20053;-69
2023/04/26 02:48:48;;;;;;;21.17;5.57;;;3.80;99.90;;;;;;5061177;28;20036;-72
2023/04/26 02:51:13;;;;;;;20.48;5.88;;;3.80;99.90;;;;;;5058539;28;20032;-71
2023/04/26 02:53:39;;;;;;;26.33;6.32;;;3.90;99.90;;;;;;5061096;28;20520;-75
2023/04/26 02:56:05;;;;;;;16.92;6.13;;;3.90;99.90;;;;;;5061387;28;20021;-72
2023/04/26 02:58:30;;;;;;;16.95;5.70;;;3.90;99.90;;;;;;5061186;28;20025;-70
2023/04/26 03:00:58;;;;;;;18.00;6.25;;;3.90;99.90;;;;;;5061071;28;20028;-70
2023/04/26 03:03:24;;;;;;;28.02;6.25;;;3.90;99.90;;;;;;5059566;28;20033;-70
2023/04/26 03:05:50;;;;;;;17.45;6.60;;;3.90;99.90;;;;;;5059631;28;20059;-71
2023/04/26 03:08:15;;;;;;;21.40;5.55;;;4.00;99.90;;;;;;5060784;28;20033;-72
2023/04/26 03:10:43;;;;;;;16.77;5.47;;;4.00;99.90;;;;;;5060726;28;20039;-69
2023/04/26 03:13:09;;;;;;;24.08;5.82;;;4.00;99.90;;;;;;5060956;28;20048;-72
2023/04/26 03:15:34;;;;;;;15.40;5.82;;;4.00;99.90;;;;;;5059957;28;20021;-71
2023/04/26 03:18:00;;;;;;;19.75;5.82;;;4.00;99.90;;;;;;5060598;28;20025;-71
2023/04/26 03:20:26;;;;;;;28.40;6.15;;;4.00;99.90;;;;;;5060526;28;20051;-73
2023/04/26 03:22:51;;;;;;;13.30;5.20;;;3.90;99.90;;;;;;5059247;28;20092;-71
2023/04/26 03:25:17;;;;;;;19.80;6.10;;;3.90;99.90;;;;;;5059402;28;20037;-72
2023/04/26 03:27:43;;;;;;;14.63;5.32;;;3.90;99.90;;;;;;5060458;28;20025;-71
2023/04/26 03:30:09;;;;;;;18.25;5.70;;;3.90;99.90;;;;;;5059475;28;20017;-72
2023/04/26 03:32:34;;;;;;;19.15;5.95;;;3.90;99.90;;;;;;5060893;28;20033;-71
2023/04/26 03:35:00;;;;;;;20.98;5.97;;;3.90;99.90;;;;;;5060099;28;20055;-73
2023/04/26 03:37:26;;;;;;;16.30;5.80;;;3.90;99.90;;;;;;5060299;28;20427;-72
2023/04/26 03:39:52;;;;;;;26.73;6.15;;;4.00;99.90;;;;;;5057870;28;20119;-73
2023/04/26 03:42:19;;;;;;;18.05;6.03;;;4.00;99.90;;;;;;5060061;28;21023;-72
2023/04/26 03:44:45;;;;;;;19.05;6.30;;;4.00;99.90;;;;;;5060009;28;20036;-72
2023/04/26 03:47:11;;;;;;;18.55;6.47;;;4.00;99.90;;;;;;5060547;28;20097;-71
2023/04/26 03:49:36;;;;;;;21.92;6.72;;;4.00;99.90;;;;;;5060544;28;20028;-71
2023/04/26 03:52:03;;;;;;;21.40;6.45;;;3.90;99.90;;;;;;5059006;28;20036;-71
2023/04/26 03:54:28;;;;;;;18.08;6.72;;;3.90;99.90;;;;;;5060324;28;20029;-72
2023/04/26 03:56:54;;;;;;;19.55;6.05;;;3.90;99.90;;;;;;5060018;28;20021;-69
2023/04/26 03:59:19;;;;;;;22.65;6.65;;;3.80;99.90;;;;;;5058024;28;20068;-72
2023/04/26 04:01:45;;;;;;;24.58;7.18;;;3.80;99.90;;;;;;5060257;28;20028;-71
2023/04/26 04:04:10;;;;;;;27.00;8.52;;;3.70;99.90;;;;;;5060347;28;20041;-74
2023/04/26 04:06:37;;;;;;;15.88;5.97;;;3.70;99.90;;;;;;5060360;28;20021;-72
2023/04/26 04:09:04;;;;;;;18.83;6.50;;;3.70;99.90;;;;;;5060098;28;20733;-70
2023/04/26 04:11:30;;;;;;;13.73;6.53;;;3.70;99.90;;;;;;5059695;28;20028;-73
2023/04/26 04:13:55;;;;;;;20.60;6.78;;;3.70;99.90;;;;;;5058895;28;20017;-71
2023/04/26 04:16:21;;;;;;;20.88;6.35;;;3.70;99.90;;;;;;5057979;28;20017;-72
2023/04/26 04:18:46;;;;;;;23.40;6.47;;;3.70;99.90;;;;;;5060032;28;20033;-75
2023/04/26 04:21:12;;;;;;;18.98;6.50;;;3.70;99.90;;;;;;5060119;28;20025;-72
2023/04/26 04:23:37;;;;;;;22.52;6.70;;;3.70;99.90;;;;;;5060119;28;20037;-73
2023/04/26 04:26:04;;;;;;;22.13;6.57;;;3.60;99.90;;;;;;5060113;28;20462;-71
2023/04/26 04:28:31;;;;;;;18.10;6.75;;;3.70;99.90;;;;;;5060363;28;20025;-72
2023/04/26 04:30:57;;;;;;;18.52;6.38;;;3.70;99.90;;;;;;5058452;28;20536;-71
2023/04/26 04:33:24;;;;;;;24.05;6.75;;;3.60;99.90;;;;;;5058118;28;20021;-71
2023/04/26 04:35:51;;;;;;;23.50;6.40;;;3.60;99.90;;;;;;5059177;28;20025;-71
2023/04/26 04:38:17;;;;;;;24.40;6.93;;;3.60;99.90;;;;;;5060481;28;20025;-71
2023/04/26 04:40:42;;;;;;;25.48;6.93;;;3.60;99.90;;;;;;5063543;28;20031;-71
2023/04/26 04:43:09;;;;;;;22.13;7.18;;;3.60;99.90;;;;;;5063643;28;20025;-74
2023/04/26 04:45:36;;;;;;;26.40;8.35;;;3.60;99.90;;;;;;5061160;28;20055;-71
2023/04/26 04:48:03;;;;;;;23.33;6.80;;;3.60;99.90;;;;;;5062077;28;20056;-70
2023/04/26 04:50:30;;;;;;;23.42;6.75;;;3.50;99.90;;;;;;5062992;28;20112;-69
2023/04/26 04:52:56;;;;;;;18.30;6.45;;;3.60;99.90;;;;;;5061993;28;20025;-70
2023/04/26 04:55:22;;;;;;;21.75;6.82;;;3.50;99.90;;;;;;5062225;28;20027;-70
2023/04/26 04:57:48;;;;;;;22.85;6.47;;;3.60;99.90;;;;;;5062851;28;20155;-70
2023/04/26 05:00:14;;;;;;;24.30;6.82;;;3.60;99.90;;;;;;5060994;28;20037;-69
2023/04/26 05:02:40;;;;;;;22.27;6.68;;;3.60;99.90;;;;;;5062552;28;20025;-70
2023/04/26 05:05:06;;;;;;;22.25;5.90;;;3.60;99.90;;;;;;5063106;28;20041;-69
2023/04/26 05:07:32;;;;;;;20.02;5.78;;;3.70;99.90;;;;;;5059307;28;20043;-68
2023/04/26 05:09:58;;;;;;;17.15;6.03;;;3.70;99.90;;;;;;5055329;28;20056;-68
2023/04/26 05:12:24;;;;;;;20.17;6.40;;;3.70;99.90;;;;;;5064245;28;20024;-67
2023/04/26 05:14:50;;;;;;;19.23;5.88;;;3.60;99.90;;;;;;5064538;28;20037;-68
2023/04/26 05:17:15;;;;;;;14.15;5.68;;;3.70;99.90;;;;;;5062710;28;20029;-69
2023/04/26 05:19:41;;;;;;;21.23;5.78;;;3.70;99.90;;;;;;5064259;28;20063;-70
2023/04/26 05:22:07;;;;;;;19.70;5.63;;;3.70;99.90;;;;;;5064113;28;20036;-68
2023/04/26 05:24:32;;;;;;;16.50;5.80;;;3.60;99.90;;;;;;5064020;28;20040;-68
2023/04/26 05:26:58;;;;;;;20.38;5.57;;;3.60;99.90;;;;;;5063775;28;20031;-69
2023/04/26 05:29:28;;;;;;;19.88;5.82;;;3.60;99.90;;;;;;5061389;28;20025;-66
2023/04/26 05:31:54;;;;;;;15.18;5.85;;;3.70;99.90;;;;;;5061555;28;20084;-70
2023/04/26 05:34:20;;;;;;;17.00;5.22;;;3.70;99.90;;;;;;5064091;28;20363;-68
2023/04/26 05:36:45;;;;;;;16.73;5.30;;;3.80;99.90;;;;;;5063673;28;20025;-71
2023/04/26 05:39:11;;;;;;;20.38;6.22;;;3.80;99.90;;;;;;5062565;28;20028;-68
2023/04/26 05:41:37;;;;;;;17.42;5.47;;;3.90;99.90;;;;;;5064164;28;20025;-67
2023/04/26 05:44:02;;;;;;;18.90;5.18;;;3.90;99.90;;;;;;5063797;28;20089;-68
2023/04/26 05:46:28;;;;;;;20.80;5.70;;;4.00;99.90;;;;;;5063657;28;20043;-68
2023/04/26 05:48:54;;;;;;;20.67;4.82;;;4.10;99.90;;;;;;5062951;28;20021;-70
2023/04/26 05:51:20;;;;;;;13.35;5.55;;;4.10;99.90;;;;;;5058377;28;20155;-69
2023/04/26 05:53:45;;;;;;;16.77;4.88;;;4.20;99.90;;;;;;5059882;28;20465;-68
2023/04/26 05:56:11;;;;;;;13.27;4.47;;;4.30;99.90;;;;;;5060504;28;20025;-68
2023/04/26 05:58:37;;;;;;;17.10;4.15;;;4.30;99.90;;;;;;5063010;28;20029;-70
2023/04/26 06:01:03;;;;;;;13.18;4.25;;;4.40;99.90;;;;;;5057966;28;20119;-66
2023/04/26 06:03:28;;;;;;;14.30;4.40;;;4.50;99.90;;;;;;5060785;28;20040;-72
2023/04/26 06:05:54;;;;;;;12.95;4.43;;;4.60;99.90;;;;;;5060779;28;20041;-69
2023/04/26 06:08:20;;;;;;;25.05;4.82;;;4.70;99.90;;;;;;5061269;28;20033;-68
2023/04/26 06:10:45;;;;;;;16.80;4.47;;;4.80;99.90;;;;;;5062757;28;20033;-68
2023/04/26 06:13:12;;;;;;;15.23;4.13;;;4.90;99.90;;;;;;5063098;28;20021;-66
2023/04/26 06:15:37;;;;;;;12.80;4.07;;;4.90;99.90;;;;;;5062245;28;20382;-68
2023/04/26 06:18:06;;;;;;;18.00;4.47;;;5.00;99.90;;;;;;5063572;28;20049;-68
2023/04/26 06:20:32;;;;;;;17.33;4.80;;;5.10;99.90;;;;;;5061776;28;20032;-69
2023/04/26 06:22:58;;;;;;;15.23;4.18;;;5.20;99.90;;;;;;5061908;28;20076;-67
2023/04/26 06:25:27;;;;;;;12.30;3.83;;;5.30;99.90;;;;;;5056617;28;20044;-65
2023/04/26 06:27:53;;;;;;;15.80;4.20;;;5.30;99.90;;;;;;5056826;28;20048;-68
2023/04/26 06:30:18;;;;;;;12.52;3.80;;;5.40;99.90;;;;;;5061680;28;20021;-67
2023/04/26 06:32:44;;;;;;;11.77;4.50;;;5.50;99.90;;;;;;5060663;28;20375;-70
2023/04/26 06:35:11;;;;;;;15.60;3.92;;;5.60;99.90;;;;;;5056631;28;20087;-67
2023/04/26 06:37:38;;;;;;;14.10;4.40;;;5.70;99.90;;;;;;5059573;28;20029;-68
2023/04/26 06:40:04;;;;;;;13.88;4.22;;;5.80;99.90;;;;;;5056310;28;20025;-67
2023/04/26 06:42:30;;;;;;;13.85;3.75;;;5.80;99.90;;;;;;5061362;28;20020;-67
2023/04/26 06:44:56;;;;;;;12.70;4.07;;;5.90;99.90;;;;;;5058792;28;20052;-67
2023/04/26 06:47:22;;;;;;;14.85;3.80;;;6.00;99.90;;;;;;5061505;28;20071;-68
2023/04/26 06:49:47;;;;;;;16.98;4.13;;;6.20;99.90;;;;;;5059431;28;20095;-67
2023/04/26 06:52:13;;;;;;;18.55;3.97;;;6.30;99.90;;;;;;5059801;28;20036;-68
2023/04/26 06:54:38;;;;;;;15.38;3.95;;;6.30;99.90;;;;;;5059288;28;20033;-66
2023/04/26 06:57:04;;;;;;;15.90;3.58;;;6.30;99.90;;;;;;5060305;28;20062;-67
2023/04/26 06:59:30;;;;;;;19.90;4.13;;;6.30;99.90;;;;;;5060089;28;20028;-67
2023/04/26 07:01:55;;;;;;;14.48;4.10;;;6.40;99.90;;;;;;5061245;28;20025;-67
2023/04/26 07:04:21;;;;;;;9.13;4.30;;;6.50;99.90;;;;;;5060686;28;20037;-69
2023/04/26 07:06:46;;;;;;;19.25;4.45;;;6.50;99.90;;;;;;5060413;28;20216;-67
2023/04/26 07:09:12;;;;;;;14.82;4.47;;;6.60;99.90;;;;;;5061552;28;20036;-68
2023/04/26 07:11:38;;;;;;;15.35;4.00;;;6.60;99.90;;;;;;5060627;28;20032;-68
2023/04/26 07:14:04;;;;;;;14.82;4.28;;;6.60;99.90;;;;;;5060961;28;20046;-69
2023/04/26 07:16:30;;;;;;;13.40;4.45;;;6.70;99.90;;;;;;5061253;28;20385;-69
2023/04/26 07:18:57;;;;;;;14.77;4.65;;;6.70;99.90;;;;;;5059724;28;20042;-69
2023/04/26 07:21:23;;;;;;;13.93;4.22;;;6.90;99.90;;;;;;5057927;28;20144;-69
2023/04/26 07:23:55;;;;;;;13.15;4.78;;;7.10;99.90;;;;;;5061509;28;20041;-69
2023/04/26 07:26:22;;;;;;;17.67;5.05;;;7.20;99.90;;;;;;5061124;28;20036;-67
2023/04/26 07:28:48;;;;;;;22.42;4.50;;;7.30;99.90;;;;;;5060658;28;20048;-70
2023/04/26 07:31:13;;;;;;;14.57;4.15;;;7.30;99.90;;;;;;5059688;28;20021;-67
2023/04/26 07:33:39;;;;;;;16.65;4.38;;;7.30;99.90;;;;;;5061410;28;20021;-69
2023/04/26 07:36:05;;;;;;;13.85;4.65;;;7.30;99.90;;;;;;5060475;28;20028;-68
2023/04/26 07:38:31;;;;;;;22.60;4.53;;;7.30;99.90;;;;;;5060266;28;20037;-68
2023/04/26 07:40:57;;;;;;;10.52;4.07;;;7.30;99.90;;;;;;5060439;28;20029;-66
2023/04/26 07:43:22;;;;;;;19.48;5.00;;;7.30;99.90;;;;;;5060837;28;20025;-68
2023/04/26 07:45:48;;;;;;;16.95;5.10;;;7.40;99.90;;;;;;5058804;28;20102;-67
2023/04/26 07:48:13;;;;;;;14.25;4.43;;;7.40;99.90;;;;;;5059118;28;20567;-68
2023/04/26 07:50:39;;;;;;;12.95;4.15;;;7.40;99.90;;;;;;5060199;28;20021;-66
2023/04/26 07:53:05;;;;;;;11.00;4.38;;;7.50;99.90;;;;;;5061442;28;20048;-67
2023/04/26 07:55:31;;;;;;;14.43;4.55;;;7.50;99.90;;;;;;5060068;28;20025;-68
2023/04/26 07:57:56;;;;;;;14.60;4.15;;;7.50;99.90;;;;;;5061082;28;20505;-67
2023/04/26 08:00:22;;;;;;;20.00;4.82;;;7.40;99.90;;;;;;5061164;28;20021;-66
2023/04/26 08:02:48;;;;;;;15.20;4.90;;;7.40;99.90;;;;;;5061169;28;20056;-68
2023/04/26 08:05:15;;;;;;;15.82;4.85;;;7.40;99.90;;;;;;5060502;28;20533;-68
2023/04/26 08:07:41;;;;;;;11.13;4.38;;;7.30;99.90;;;;;;5060925;28;20025;-68
2023/04/26 08:10:08;;;;;;;13.98;4.78;;;7.30;99.90;;;;;;5061052;28;20025;-68
2023/04/26 08:12:36;;;;;;;20.25;4.60;;;7.40;99.90;;;;;;5059927;28;20025;-70
2023/04/26 08:15:03;;;;;;;19.55;4.47;;;7.30;99.90;;;;;;5064096;28;20400;-69
2023/04/26 08:17:30;;;;;;;10.75;4.38;;;7.50;99.90;;;;;;5063268;28;20047;-68
2023/04/26 08:19:55;;;;;;;14.68;4.43;;;7.60;99.90;;;;;;5064107;28;20032;-68
2023/04/26 08:22:21;;;;;;;13.13;4.22;;;7.80;99.90;;;;;;5061853;28;20025;-66
2023/04/26 08:24:51;;;;;;;16.77;4.18;;;8.00;99.90;;;;;;5063084;28;20104;-68
2023/04/26 08:27:18;;;;;;;8.38;3.70;;;8.20;99.90;;;;;;5062476;28;20992;-70
2023/04/26 08:29:45;;;;;;;10.52;3.80;;;8.40;99.90;;;;;;5061111;28;20105;-69
2023/04/26 08:32:11;;;;;;;9.85;3.55;;;8.70;99.90;;;;;;5063571;28;20083;-71
2023/04/26 08:34:37;;;;;;;13.10;3.70;;;8.90;99.90;;;;;;5063678;28;20041;-68
2023/04/26 08:37:04;;;;;;;16.65;4.25;;;9.00;99.90;;;;;;5062691;28;20038;-67
2023/04/26 08:39:29;;;;;;;11.10;3.05;;;8.90;99.90;;;;;;5060378;28;20029;-70
2023/04/26 08:42:04;;;;;;;12.98;4.03;;;8.80;99.90;;;;;;5062870;28;20358;-70
2023/04/26 08:44:33;;;;;;;15.20;3.90;;;8.60;99.90;;;;;;5064213;28;20032;-68
2023/04/26 08:47:21;;;;;;;10.50;3.88;;;8.50;99.90;;;;;;5062924;28;20571;-67
2023/04/26 08:49:58;;;;;;;15.48;3.65;;;8.50;99.90;;;;;;5064014;28;20096;-69
2023/04/26 08:52:26;;;;;;;16.30;3.97;;;8.50;99.90;;;;;;5064251;28;20040;-66
2023/04/26 08:54:53;;;;;;;13.43;3.72;;;8.40;99.90;;;;;;5064228;28;20043;-68
2023/04/26 08:57:20;;;;;;;15.18;4.13;;;8.40;99.90;;;;;;5064573;28;20025;-68
2023/04/26 08:59:46;;;;;;;18.35;4.65;;;8.30;99.90;;;;;;5064378;28;20017;-68
2023/04/26 09:02:17;;;;;;;17.40;3.92;;;8.30;99.90;;;;;;5062699;28;20478;-68
2023/04/26 09:04:45;;;;;;;12.43;3.90;;;8.30;99.90;;;;;;5064656;28;20037;-70
2023/04/26 09:07:18;;;;;;;14.35;4.50;;;8.30;99.90;;;;;;5063961;28;20037;-68
2023/04/26 09:09:47;;;;;;;11.93;3.78;;;8.40;99.90;;;;;;5062694;28;20028;-67
2023/04/26 09:12:16;;;;;;;13.68;4.32;;;8.40;99.90;;;;;;5059377;28;20033;-68
2023/04/26 09:14:41;;;;;;;16.58;4.50;;;8.30;99.90;;;;;;5063047;28;20017;-67
2023/04/26 09:17:24;;;;;;;10.05;3.50;;;8.20;99.90;;;;;;5060942;28;20052;-68
2023/04/26 09:19:49;;;;;;;13.45;4.28;;;8.00;99.90;;;;;;5060415;28;20024;-68
2023/04/26 09:22:27;;;;;;;17.40;4.30;;;7.90;99.90;;;;;;5059384;28;20029;-69
2023/04/26 09:24:52;;;;;;;12.00;4.20;;;7.70;99.90;;;;;;5060757;28;20029;-70
2023/04/26 09:27:18;;;;;;;12.40;4.22;;;7.40;99.90;;;;;;5060453;28;20171;-70
2023/04/26 09:30:06;;;;;;;11.27;4.38;;;7.00;99.90;;;;;;5062405;28;20044;-69
2023/04/26 09:32:54;;;;;;;17.15;5.00;;;6.80;99.90;;;;;;5061293;28;20060;-69
2023/04/26 09:35:40;;;;;;;13.30;4.97;;;6.70;99.90;;;;;;5060801;28;20028;-69
2023/04/26 09:38:15;;;;;;;9.45;4.78;;;6.70;99.90;;;;;;5063194;28;20132;-70
2023/04/26 09:40:46;;;;;;;10.23;4.43;;;6.80;99.90;;;;;;5061497;28;20366;-69
2023/04/26 09:43:16;;;;;;;13.35;4.55;;;6.90;99.90;;;;;;5064005;28;20084;-70
2023/04/26 09:45:48;;;;;;;14.20;5.35;;;7.10;99.90;;;;;;5061070;28;20126;-70
2023/04/26 09:48:30;;;;;;;10.40;4.50;;;7.30;99.90;;;;;;5062574;28;20029;-68
2023/04/26 09:50:58;;;;;;;14.25;4.68;;;7.70;99.90;;;;;;5060504;28;20032;-70
2023/04/26 09:53:35;;;;;;;15.00;4.32;;;8.00;99.90;;;;;;5062696;28;20041;-66
2023/04/26 09:56:16;;;;;;;13.23;4.07;;;8.30;99.90;;;;;;5057887;28;20085;-67
2023/04/26 09:58:57;;;;;;;9.75;3.97;;;8.50;99.90;;;;;;5063697;28;20068;-69
2023/04/26 10:01:24;;;;;;;10.48;3.92;;;8.70;99.90;;;;;;5062621;28;20036;-70
2023/04/26 10:03:50;;;;;;;10.90;3.58;;;8.90;99.90;;;;;;5059162;28;20036;-70
2023/04/26 10:06:17;;;;;;;11.98;3.67;;;9.20;99.90;;;;;;5058090;28;20040;-65
2023/04/26 10:08:43;;;;;;;13.18;4.07;;;9.60;99.90;;;;;;5061275;28;20041;-68
2023/04/26 10:11:10;;;;;;;18.02;6.43;;;9.90;99.90;;;;;;5062000;28;20025;-66
2023/04/26 10:13:37;;;;;;;15.68;4.78;;;10.00;99.90;;;;;;5062214;28;20029;-67
2023/04/26 10:16:03;;;;;;;20.27;6.05;;;9.90;99.90;;;;;;5063515;28;20028;-66
2023/04/26 10:18:30;;;;;;;10.60;3.80;;;10.10;99.90;;;;;;5062842;28;20017;-66
2023/04/26 10:21:01;;;;;;;11.50;3.60;;;10.20;99.90;;;;;;5059996;28;20549;-66
2023/04/26 10:23:27;;;;;;;10.25;3.20;;;10.40;99.90;;;;;;5060301;28;20037;-67
2023/04/26 10:25:54;;;;;;;9.38;2.80;;;10.60;99.90;;;;;;5060770;28;20036;-67
2023/04/26 10:28:38;;;;;;;10.80;3.35;;;10.60;99.90;;;;;;5061098;28;20048;-68
2023/04/26 10:31:05;;;;;;;8.82;3.25;;;10.70;99.90;;;;;;5059437;28;20041;-69
2023/04/26 10:33:32;;;;;;;11.70;3.75;;;10.50;99.90;;;;;;5058795;28;20191;-67
2023/04/26 10:36:00;;;;;;;8.68;3.65;;;10.10;99.90;;;;;;5060964;28;20028;-67
2023/04/26 10:38:25;;;;;;;12.52;4.00;;;9.60;99.90;;;;;;5061477;28;20067;-69
2023/04/26 10:40:51;;;;;;;8.55;3.70;;;8.90;99.90;;;;;;5058709;28;20024;-67
2023/04/26 10:43:18;;;;;;;9.27;3.47;;;8.40;99.90;;;;;;5058901;28;20050;-68
2023/04/26 10:45:47;;;;;;;9.35;5.05;;;7.90;99.90;;;;;;5061908;28;20156;-70
2023/04/26 10:48:30;;;;;;;12.02;3.85;;;7.50;99.90;;;;;;5058001;28;20052;-70
2023/04/26 10:51:07;;;;;;;12.02;4.20;;;7.20;99.90;;;;;;5054844;28;20061;-70
2023/04/26 10:53:45;;;;;;;13.63;4.30;;;7.00;99.90;;;;;;5061315;28;20032;-69
2023/04/26 10:56:25;;;;;;;10.50;3.67;;;7.00;99.90;;;;;;5055436;28;20059;-69
2023/04/26 10:59:18;;;;;;;12.75;3.03;;;7.00;99.90;;;;;;5057921;28;20112;-70
2023/04/26 11:01:45;;;;;;;8.60;3.30;;;7.10;99.90;;;;;;5059058;28;20036;-70
2023/04/26 11:04:11;;;;;;;14.25;3.10;;;7.20;99.90;;;;;;5061789;28;20037;-70
2023/04/26 11:06:48;;;;;;;10.15;2.90;;;7.30;99.90;;;;;;5060584;28;20031;-71
2023/04/26 11:09:48;;;;;;;9.15;3.33;;;7.50;99.90;;;;;;5059151;28;20096;-70
2023/04/26 11:12:15;;;;;;;8.88;2.80;;;7.60;99.90;;;;;;5048799;28;20037;-69
2023/04/26 11:14:45;;;;;;;15.55;3.08;;;7.70;99.90;;;;;;5061687;28;20082;-71
2023/04/26 11:17:11;;;;;;;11.35;2.35;;;7.80;99.90;;;;;;5061944;28;20021;-69
2023/04/26 11:19:40;;;;;;;9.73;2.33;;;7.80;99.90;;;;;;5061073;28;20040;-69
2023/04/26 11:22:06;;;;;;;8.15;2.22;;;7.70;99.90;;;;;;5061240;28;20029;-69
2023/04/26 11:24:37;;;;;;;10.82;3.10;;;7.70;99.90;;;;;;5061426;28;20045;-70
2023/04/26 11:27:10;;;;;;;5.80;2.40;;;7.70;99.90;;;;;;5062222;28;20025;-70
2023/04/26 11:29:36;;;;;;;9.35;2.95;;;7.80;99.90;;;;;;5062356;28;20037;-69
2023/04/26 11:32:03;;;;;;;11.30;2.58;;;7.90;99.90;;;;;;5060078;28;20029;-72
2023/04/26 11:34:33;;;;;;;8.52;2.67;;;8.10;99.90;;;;;;5060851;28;20401;-70
2023/04/26 11:37:00;;;;;;;10.07;2.60;;;8.30;99.90;;;;;;5062041;28;20390;-72
2023/04/26 11:39:26;;;;;;;7.32;2.47;;;8.80;99.90;;;;;;5061394;28;20024;-69
2023/04/26 11:42:04;;;;;;;11.75;3.10;;;9.50;99.90;;;;;;5062029;28;20397;-70
2023/04/26 11:44:30;;;;;;;6.93;2.45;;;9.90;99.90;;;;;;5061089;28;20078;-70
2023/04/26 11:46:55;;;;;;;9.75;2.90;;;10.20;99.90;;;;;;5061166;28;20512;-69
2023/04/26 11:49:21;;;;;;;8.23;2.70;;;10.50;99.90;;;;;;5066131;28;20032;-67
2023/04/26 11:51:48;;;;;;;11.60;3.20;;;10.60;99.90;;;;;;5066080;28;20103;-69
2023/04/26 11:54:36;;;;;;;8.13;2.70;;;10.40;99.90;;;;;;5064816;28;20048;-69
2023/04/26 11:57:14;;;;;;;8.02;2.60;;;10.30;99.90;;;;;;5065866;28;20028;-67
2023/04/26 11:59:40;;;;;;;9.75;3.10;;;10.00;99.90;;;;;;5063276;28;20562;-69
2023/04/26 12:02:06;;;;;;;14.75;3.33;;;9.80;99.90;;;;;;5062047;28;20053;-70
2023/04/26 12:04:33;;;;;;;9.40;2.95;;;9.70;99.90;;;;;;5063808;28;20036;-70
2023/04/26 12:06:59;;;;;;;9.07;3.83;;;9.60;99.90;;;;;;5062366;28;20033;-70
2023/04/26 12:09:30;;;;;;;6.97;2.50;;;9.50;99.90;;;;;;5064327;28;20021;-69
2023/04/26 12:12:09;;;;;;;6.78;2.30;;;9.60;99.90;;;;;;5065465;28;20056;-69
2023/04/26 12:14:38;;;;;;;6.82;1.88;;;10.00;99.90;;;;;;5062502;28;20036;-67
2023/04/26 12:17:05;;;;;;;6.78;1.90;;;10.30;99.90;;;;;;5061935;28;20025;-69
2023/04/26 12:19:35;;;;;;;4.03;1.50;;;10.30;99.90;;;;;;5063516;28;20033;-67
2023/04/26 12:22:01;;;;;;;5.57;1.60;;;10.40;99.90;;;;;;5060395;28;20029;-70
2023/04/26 12:24:29;;;;;;;6.30;1.85;;;10.40;99.90;;;;;;5061172;28;20102;-71
2023/04/26 12:26:56;;;;;;;7.57;1.67;;;10.40;99.90;;;;;;5064322;28;20045;-70
2023/04/26 12:29:21;;;;;;;7.38;2.15;;;10.50;99.90;;;;;;5063530;28;20104;-69
2023/04/26 12:31:47;;;;;;;6.95;1.30;;;10.50;99.90;;;;;;5064554;28;20037;-64
2023/04/26 12:34:13;;;;;;;5.13;1.30;;;11.00;99.90;;;;;;5063955;28;20087;-69
2023/04/26 12:36:43;;;;;;;10.25;1.83;;;11.50;99.90;;;;;;5065690;28;20063;-68
2023/04/26 12:39:10;;;;;;;7.13;1.70;;;11.90;99.90;;;;;;5065024;28;20024;-66
2023/04/26 12:41:35;;;;;;;9.13;1.58;;;12.20;99.90;;;;;;5063949;28;20489;-67
2023/04/26 12:44:01;;;;;;;6.90;1.50;;;12.50;99.90;;;;;;5064125;28;20052;-67
2023/04/26 12:46:26;;;;;;;6.13;1.42;;;12.50;99.90;;;;;;5063560;28;20085;-67
2023/04/26 12:48:53;;;;;;;10.18;1.70;;;12.10;99.90;;;;;;5065155;28;20051;-70